Time Latitude Longitude Accuracy (66% radius in meters) Altitude (meters) Speed (km/hour) Bearing (degrees) Battery (%) GPS flag
16:23:11 3.554697 -76.197537 0 0 0 0 1 delete
16:23:08 3.554729 -76.197535 0 0 0 0 1 delete
16:23:00 3.554759 -76.197548 0 0 0 0 1 delete
16:22:56 3.554788 -76.197552 0 0 0 0 1 delete
16:22:54 3.554813 -76.197564 0 0 0 0 1 delete
16:22:53 3.554842 -76.197552 0 0 0 0 1 delete
16:22:52 3.554868 -76.197543 0 0 0 0 1 delete
16:22:51 3.554898 -76.197531 0 0 0 0 1 delete
16:22:50 3.554927 -76.197515 0 0 0 0 1 delete
16:22:49 3.554955 -76.197502 0 0 0 0 1 delete
16:22:48 3.554985 -76.197487 0 0 0 0 1 delete
16:22:47 3.555014 -76.197468 0 0 0 0 1 delete
16:22:46 3.555044 -76.197447 0 0 0 0 1 delete
16:22:45 3.555080 -76.197419 0 0 0 0 1 delete
16:22:44 3.555110 -76.197403 0 0 0 0 1 delete
16:22:43 3.555149 -76.197382 0 0 0 0 1 delete
16:22:42 3.555179 -76.197366 0 0 0 0 1 delete
16:22:41 3.555208 -76.197350 0 0 0 0 1 delete
16:22:40 3.555237 -76.197333 0 0 0 0 1 delete
16:22:39 3.555268 -76.197317 0 0 0 0 1 delete
16:22:38 3.555297 -76.197300 0 0 0 0 1 delete
16:22:37 3.555326 -76.197282 0 0 0 0 1 delete
16:22:36 3.555355 -76.197263 0 0 0 0 1 delete
16:22:35 3.555384 -76.197245 0 0 0 0 1 delete
16:22:34 3.555415 -76.197229 0 0 0 0 1 delete
16:22:33 3.555443 -76.197215 0 0 0 0 1 delete
16:22:32 3.555465 -76.197196 0 0 0 0 1 delete
16:22:31 3.555494 -76.197178 0 0 0 0 1 delete
16:22:30 3.555520 -76.197159 0 0 0 0 1 delete
16:22:29 3.555547 -76.197144 0 0 0 0 1 delete
16:22:28 3.555579 -76.197130 0 0 0 0 1 delete
16:22:27 3.555609 -76.197115 0 0 0 0 1 delete
16:22:26 3.555636 -76.197101 0 0 0 0 1 delete
16:22:24 3.555694 -76.197084 0 0 0 0 1 delete
16:22:23 3.555729 -76.197078 0 0 0 0 1 delete
16:22:22 3.555759 -76.197073 0 0 0 0 1 delete
16:22:21 3.555782 -76.197058 0 0 0 0 1 delete
16:22:19 3.555840 -76.197052 0 0 0 0 1 delete
16:22:18 3.555876 -76.197044 0 0 0 0 1 delete
16:22:17 3.555914 -76.197061 0 0 0 0 1 delete
16:22:16 3.555956 -76.197085 0 0 0 0 1 delete
16:22:15 3.555999 -76.197106 0 0 0 0 1 delete
16:22:14 3.556039 -76.197134 0 0 0 0 1 delete
16:22:13 3.556113 -76.197183 0 0 0 0 1 delete
16:22:12 3.556152 -76.197206 0 0 0 0 1 delete
16:22:11 3.556181 -76.197221 0 0 0 0 1 delete
16:22:10 3.556209 -76.197232 0 0 0 0 1 delete
16:22:08 3.556249 -76.197262 0 0 0 0 1 delete
16:22:06 3.556274 -76.197299 0 0 0 0 1 delete
16:22:04 3.556306 -76.197326 0 0 0 0 1 delete